createdAt,value
2018-11-20T00:00:32.525Z,18.93
2018-11-20T00:03:22.315Z,22.00
2018-11-20T00:06:12.074Z,20.17
2018-11-20T00:09:01.887Z,20.47
2018-11-20T00:11:51.618Z,19.20
2018-11-20T00:14:41.391Z,20.87
2018-11-20T00:17:31.616Z,21.20
2018-11-20T00:20:12.921Z,22.27
2018-11-20T00:23:02.720Z,25.10
2018-11-20T00:25:46.620Z,19.43
2018-11-20T00:28:36.711Z,21.67
2018-11-20T00:31:26.450Z,21.10
2018-11-20T00:34:08.850Z,21.30
2018-11-20T00:36:48.908Z,22.67
2018-11-20T00:39:38.484Z,20.10
2018-11-20T00:42:28.349Z,24.43
2018-11-20T00:45:17.965Z,23.67
2018-11-20T00:48:07.721Z,22.97
2018-11-20T00:50:57.509Z,20.57
2018-11-20T00:53:47.290Z,19.37
2018-11-20T00:56:58.828Z,22.80
2018-11-20T00:59:50.602Z,23.97
2018-11-20T01:02:40.327Z,20.03
2018-11-20T01:05:30.242Z,20.87
2018-11-20T01:08:19.879Z,22.03
2018-11-20T01:11:09.620Z,22.00
2018-11-20T01:13:59.364Z,22.87
2018-11-20T01:16:49.140Z,21.93
2018-11-20T01:19:30.247Z,24.97
2018-11-20T01:22:20.024Z,21.97
2018-11-20T01:25:01.145Z,20.37
2018-11-20T01:27:50.788Z,20.37
2018-11-20T01:30:40.508Z,20.30
2018-11-20T01:33:30.360Z,19.73
2018-11-20T01:36:20.193Z,21.13
2018-11-20T01:39:09.940Z,17.77
2018-11-20T01:41:59.698Z,18.17
2018-11-20T01:44:49.417Z,16.27
2018-11-20T01:47:39.163Z,18.40
2018-11-20T01:50:29.014Z,15.50
2018-11-20T01:53:18.723Z,17.40
2018-11-20T01:56:08.540Z,22.83
2018-11-20T01:58:58.301Z,18.60
2018-11-20T02:01:48.260Z,16.83
2018-11-20T02:04:35.670Z,17.33
2018-11-20T02:07:27.192Z,18.83
2018-11-20T02:10:16.945Z,18.97
2018-11-20T02:13:46.691Z,18.47
2018-11-20T02:16:36.461Z,18.63
2018-11-20T02:19:26.288Z,21.80
2018-11-20T02:22:16.058Z,21.70
2018-11-20T02:25:05.833Z,16.30
2018-11-20T02:27:55.621Z,20.87
2018-11-20T02:30:45.450Z,18.97
2018-11-20T02:33:37.763Z,17.83
2018-11-20T02:36:27.853Z,19.10
2018-11-20T02:39:17.724Z,18.10
2018-11-20T02:42:07.492Z,21.73
2018-11-20T02:44:57.273Z,16.90
2018-11-20T02:47:47.050Z,20.97
2018-11-20T02:50:36.901Z,19.87
2018-11-20T02:53:26.743Z,19.63
2018-11-20T02:56:07.770Z,19.40
2018-11-20T02:58:57.463Z,19.23
2018-11-20T03:01:47.234Z,23.63
2018-11-20T03:04:37.470Z,23.87
2018-11-20T03:07:27.243Z,19.77
2018-11-20T03:10:17.061Z,25.27
2018-11-20T03:13:06.811Z,23.50
2018-11-20T03:15:56.712Z,25.73
2018-11-20T03:18:46.462Z,27.77
2018-11-20T03:21:36.232Z,26.47
2018-11-20T03:24:26.260Z,23.53
2018-11-20T03:27:16.105Z,27.00
2018-11-20T03:30:43.353Z,26.57
2018-11-20T03:33:33.169Z,25.33
2018-11-20T03:36:23.017Z,27.47
2018-11-20T03:39:12.831Z,26.73
2018-11-20T03:42:11.302Z,27.37
2018-11-20T03:45:01.149Z,32.33
2018-11-20T03:47:50.989Z,32.20
2018-11-20T03:50:40.739Z,26.53
2018-11-20T03:53:30.488Z,25.30
2018-11-20T03:56:20.333Z,24.13
2018-11-20T03:59:10.103Z,22.50
2018-11-20T04:01:59.851Z,24.77
2018-11-20T04:04:49.620Z,23.07
2018-11-20T04:07:39.299Z,21.50
2018-11-20T04:10:29.081Z,26.57
2018-11-20T04:13:18.910Z,26.30
2018-11-20T04:16:08.674Z,23.20
2018-11-20T04:18:50.074Z,22.70
2018-11-20T04:21:39.850Z,21.13
2018-11-20T04:24:29.671Z,21.27
2018-11-20T04:27:19.470Z,52.23
2018-11-20T04:30:26.290Z,33.00
2018-11-20T04:33:53.428Z,19.77
2018-11-20T04:36:44.240Z,17.20
2018-11-20T04:39:34.019Z,21.10
2018-11-20T04:42:23.788Z,19.00
2018-11-20T04:45:13.588Z,19.83
2018-11-20T04:48:01.849Z,18.80
2018-11-20T04:50:51.506Z,21.67
2018-11-20T04:53:41.262Z,19.00
2018-11-20T04:56:31.094Z,22.07
2018-11-20T04:59:20.723Z,22.03
2018-11-20T05:02:10.399Z,21.50
2018-11-20T05:05:00.163Z,21.43
2018-11-20T05:07:49.931Z,23.63
2018-11-20T05:10:39.699Z,19.53
2018-11-20T05:13:29.648Z,20.20
2018-11-20T05:16:19.209Z,22.53
2018-11-20T05:19:10.178Z,18.57
2018-11-20T05:21:59.939Z,21.57
2018-11-20T05:24:49.769Z,22.33
2018-11-20T05:27:29.543Z,22.97
2018-11-20T05:30:19.233Z,23.80
2018-11-20T05:33:09.110Z,23.37
2018-11-20T05:35:58.893Z,21.47
2018-11-20T05:38:48.755Z,18.60
2018-11-20T05:41:38.478Z,20.67
2018-11-20T05:44:28.298Z,21.47
2018-11-20T05:47:18.118Z,20.00
2018-11-20T05:50:07.926Z,20.90
2018-11-20T05:52:57.678Z,20.97
2018-11-20T05:55:47.418Z,21.83
2018-11-20T05:58:37.213Z,19.77
2018-11-20T06:01:25.419Z,22.33
2018-11-20T06:04:06.824Z,20.13
2018-11-20T06:06:56.474Z,17.37
2018-11-20T06:09:46.174Z,20.03
2018-11-20T06:12:55.568Z,18.90
2018-11-20T06:15:45.265Z,18.70
2018-11-20T06:18:35.014Z,18.27
2018-11-20T06:21:25.143Z,18.60
2018-11-20T06:24:04.759Z,17.80
2018-11-20T06:26:54.587Z,19.67
2018-11-20T06:29:44.340Z,20.03
2018-11-20T06:32:34.089Z,20.20
2018-11-20T06:35:23.861Z,21.93
2018-11-20T06:38:13.679Z,17.27
2018-11-20T06:41:03.531Z,19.70
2018-11-20T06:43:53.254Z,19.07
2018-11-20T06:46:43.023Z,21.60
2018-11-20T06:49:32.834Z,21.67
2018-11-20T06:52:22.555Z,20.03
2018-11-20T06:55:12.315Z,24.03
2018-11-20T06:58:02.050Z,20.97
2018-11-20T07:00:51.847Z,23.20
2018-11-20T07:03:44.474Z,23.50
2018-11-20T07:06:34.355Z,21.13
2018-11-20T07:09:24.434Z,20.80
2018-11-20T07:12:23.067Z,22.03
2018-11-20T07:15:12.777Z,22.77
2018-11-20T07:18:02.451Z,19.67
2018-11-20T07:20:52.092Z,23.63
2018-11-20T07:23:41.924Z,23.07
2018-11-20T07:26:31.794Z,24.83
2018-11-20T07:29:21.641Z,21.13
2018-11-20T07:32:11.404Z,23.97
2018-11-20T07:35:01.252Z,22.63
2018-11-20T07:37:50.904Z,25.70
2018-11-20T07:40:40.670Z,25.70
2018-11-20T07:43:29.481Z,22.87
2018-11-20T07:46:19.110Z,20.73
2018-11-20T07:49:08.842Z,24.87
2018-11-20T07:51:58.680Z,21.70
2018-11-20T07:54:48.512Z,22.27
2018-11-20T07:57:38.284Z,20.90
2018-11-20T08:00:28.111Z,19.67
2018-11-20T08:03:17.942Z,20.80
2018-11-20T08:06:07.732Z,21.17
2018-11-20T08:08:57.553Z,18.60
2018-11-20T08:11:47.360Z,19.03
2018-11-20T08:14:37.237Z,18.93
2018-11-20T08:17:26.989Z,18.23
2018-11-20T08:20:16.874Z,24.03
2018-11-20T08:23:06.585Z,20.37
2018-11-20T08:25:56.492Z,22.37
2018-11-20T08:28:46.199Z,18.40
2018-11-20T08:31:36.063Z,17.67
2018-11-20T08:34:25.832Z,20.00
2018-11-20T08:37:07.293Z,20.27
2018-11-20T08:39:56.903Z,20.97
2018-11-20T08:42:46.803Z,21.27
2018-11-20T08:45:36.646Z,18.40
2018-11-20T08:48:14.926Z,18.03
2018-11-20T08:51:04.616Z,19.00
2018-11-20T08:53:54.410Z,18.27
2018-11-20T08:56:44.197Z,22.50
2018-11-20T08:59:34.062Z,22.03
2018-11-20T09:02:23.983Z,20.63
2018-11-20T09:05:13.667Z,19.80
2018-11-20T09:08:03.391Z,17.33
2018-11-20T09:10:53.084Z,18.53
2018-11-20T09:13:43.043Z,16.83
2018-11-20T09:16:32.861Z,18.33
2018-11-20T09:19:22.759Z,17.00
2018-11-20T09:22:12.529Z,19.03
2018-11-20T09:25:02.378Z,18.00
2018-11-20T09:27:45.427Z,20.83
2018-11-20T09:30:35.057Z,18.83
2018-11-20T09:33:25.130Z,15.10
2018-11-20T09:36:14.965Z,18.47
2018-11-20T09:39:04.776Z,16.73
2018-11-20T09:41:54.554Z,17.80
2018-11-20T09:45:21.754Z,17.53
2018-11-20T09:48:11.612Z,15.13
2018-11-20T09:51:01.432Z,17.40
2018-11-20T09:53:53.428Z,17.57
2018-11-20T09:56:43.182Z,18.83
2018-11-20T09:59:32.903Z,20.13
2018-11-20T10:02:22.587Z,19.53
2018-11-20T10:05:12.349Z,27.73
2018-11-20T10:08:02.000Z,22.37
2018-11-20T10:10:51.801Z,21.60
2018-11-20T10:13:41.574Z,20.03
2018-11-20T10:16:31.390Z,26.83
2018-11-20T10:19:21.259Z,20.03
2018-11-20T10:22:11.202Z,16.60
2018-11-20T10:25:01.111Z,25.83
2018-11-20T10:27:50.736Z,22.50
2018-11-20T10:30:40.591Z,23.63
2018-11-20T10:33:30.412Z,27.90
2018-11-20T10:36:20.101Z,27.67
2018-11-20T10:39:09.934Z,24.33
2018-11-20T10:41:59.663Z,27.67
2018-11-20T10:44:49.481Z,27.03
2018-11-20T10:47:39.312Z,22.67
2018-11-20T10:50:29.165Z,24.47
2018-11-20T10:53:18.968Z,23.93
2018-11-20T10:56:08.654Z,17.70
2018-11-20T10:58:58.395Z,19.33
2018-11-20T11:01:48.163Z,18.17
2018-11-20T11:04:27.265Z,19.10
2018-11-20T11:07:17.411Z,17.20
2018-11-20T11:10:08.575Z,18.17
2018-11-20T11:12:58.395Z,16.57
2018-11-20T11:15:48.671Z,26.37
2018-11-20T11:18:38.511Z,18.70
2018-11-20T11:21:28.319Z,22.37
2018-11-20T11:24:18.127Z,20.97
2018-11-20T11:27:07.986Z,22.97
2018-11-20T11:29:57.868Z,23.60
2018-11-20T11:32:47.666Z,24.57
2018-11-20T11:35:37.487Z,24.67
2018-11-20T11:38:27.377Z,24.63
2018-11-20T11:41:17.023Z,26.23
2018-11-20T11:44:06.732Z,23.70
2018-11-20T11:46:56.524Z,27.10
2018-11-20T11:49:46.663Z,24.00
2018-11-20T11:52:36.456Z,31.70
2018-11-20T11:55:26.346Z,32.73
2018-11-20T11:58:18.722Z,38.87
2018-11-20T12:01:06.054Z,35.37
2018-11-20T12:03:55.851Z,25.97
2018-11-20T12:06:45.497Z,27.30
2018-11-20T12:09:35.307Z,25.07
2018-11-20T12:12:24.951Z,33.90
2018-11-20T12:15:14.728Z,29.33
2018-11-20T12:18:04.577Z,26.20
2018-11-20T12:20:54.432Z,28.20
2018-11-20T12:23:44.248Z,24.27
2018-11-20T12:26:34.058Z,29.13
2018-11-20T12:29:23.858Z,28.13
2018-11-20T12:32:13.668Z,28.60
2018-11-20T12:35:03.419Z,30.30
2018-11-20T12:37:53.247Z,27.40
2018-11-20T12:40:43.129Z,28.40
2018-11-20T12:43:32.901Z,28.30
2018-11-20T12:46:22.704Z,28.90
2018-11-20T12:49:12.510Z,25.87
2018-11-20T12:52:02.369Z,27.50
2018-11-20T12:54:52.476Z,28.33
2018-11-20T12:57:41.933Z,34.87
2018-11-20T13:00:31.727Z,32.40
2018-11-20T13:03:21.507Z,30.50
2018-11-20T13:06:11.287Z,35.13
2018-11-20T13:09:01.042Z,33.40
2018-11-20T13:11:50.874Z,44.20
2018-11-20T13:14:43.294Z,42.87
2018-11-20T13:17:33.631Z,35.73
2018-11-20T13:20:22.953Z,32.13
2018-11-20T13:23:12.645Z,31.37
2018-11-20T13:26:02.393Z,30.03
2018-11-20T13:28:52.145Z,42.93
2018-11-20T13:31:42.051Z,35.53
2018-11-20T13:34:31.807Z,32.40
2018-11-20T13:37:21.695Z,36.00
2018-11-20T13:40:11.536Z,35.53
2018-11-20T13:43:03.373Z,40.83
2018-11-20T13:45:53.104Z,40.97
2018-11-20T13:48:42.930Z,44.90
2018-11-20T13:51:32.853Z,40.33
2018-11-20T13:54:22.698Z,38.27
2018-11-20T13:57:12.633Z,31.67
2018-11-20T14:00:02.393Z,37.93
2018-11-20T14:02:52.185Z,39.03
2018-11-20T14:05:41.999Z,32.43
2018-11-20T14:08:31.773Z,37.23
2018-11-20T14:11:22.133Z,39.03
2018-11-20T14:14:11.841Z,37.43
2018-11-20T14:17:01.600Z,42.53
2018-11-20T14:19:51.408Z,37.10
2018-11-20T14:22:39.863Z,40.57
2018-11-20T14:25:49.333Z,39.70
2018-11-20T14:28:39.139Z,37.93
2018-11-20T14:31:29.009Z,44.00
2018-11-20T14:34:18.809Z,43.67
2018-11-20T14:37:08.610Z,54.27
2018-11-20T14:40:11.739Z,58.20
2018-11-20T14:43:01.394Z,91.07
2018-11-20T14:45:51.266Z,71.33
2018-11-20T14:48:40.950Z,79.07
2018-11-20T14:51:30.726Z,44.47
2018-11-20T14:54:20.615Z,43.53
2018-11-20T14:57:10.411Z,48.67
2018-11-20T15:00:00.232Z,115.03
2018-11-20T15:02:50.105Z,64.17
2018-11-20T15:05:39.908Z,52.77
2018-11-20T15:08:30.697Z,52.60
2018-11-20T15:11:20.586Z,82.87
2018-11-20T15:14:10.445Z,64.37
2018-11-20T15:17:00.282Z,44.93
2018-11-20T15:19:50.032Z,47.47
2018-11-20T15:22:39.835Z,73.83
2018-11-20T15:25:29.688Z,267.67
2018-11-20T15:28:19.561Z,59.77
2018-11-20T15:31:09.403Z,50.67
2018-11-20T15:33:59.481Z,50.07
2018-11-20T15:36:49.349Z,45.90
2018-11-20T15:39:39.197Z,43.67
2018-11-20T15:42:28.899Z,47.90
2018-11-20T15:45:18.737Z,48.23
2018-11-20T15:48:08.584Z,48.83
2018-11-20T15:50:58.302Z,50.80
2018-11-20T15:53:48.094Z,52.17
2018-11-20T15:56:37.836Z,57.10
2018-11-20T15:59:21.526Z,54.30
2018-11-20T16:02:11.392Z,60.93
2018-11-20T16:05:01.261Z,54.00
2018-11-20T16:07:51.133Z,52.83
2018-11-20T16:10:40.901Z,52.33
2018-11-20T16:13:30.662Z,54.37
2018-11-20T16:16:20.527Z,51.20
2018-11-20T16:19:10.313Z,56.63
2018-11-20T16:22:00.066Z,59.57
2018-11-20T16:24:49.875Z,64.20
2018-11-20T16:27:39.699Z,61.83
2018-11-20T16:30:31.316Z,64.73
2018-11-20T16:33:21.129Z,66.50
2018-11-20T16:36:10.899Z,68.27
2018-11-20T16:39:00.659Z,64.67
2018-11-20T16:41:42.588Z,68.40
2018-11-20T16:44:32.250Z,65.80
2018-11-20T16:47:21.964Z,66.50
2018-11-20T16:50:11.831Z,74.40
2018-11-20T16:53:01.552Z,80.03
2018-11-20T16:55:51.392Z,62.37
2018-11-20T16:58:41.130Z,56.83
2018-11-20T17:01:31.207Z,67.73
2018-11-20T17:04:20.941Z,58.03
2018-11-20T17:07:10.832Z,55.17
2018-11-20T17:10:00.690Z,58.83
2018-11-20T17:12:50.462Z,65.40
2018-11-20T17:15:40.168Z,63.30
2018-11-20T17:18:29.821Z,64.63
2018-11-20T17:21:19.618Z,75.27
2018-11-20T17:24:09.462Z,71.10
2018-11-20T17:26:59.319Z,64.57
2018-11-20T17:29:49.128Z,69.87
2018-11-20T17:32:38.916Z,63.93
2018-11-20T17:35:28.744Z,63.97
2018-11-20T17:38:18.618Z,63.47
2018-11-20T17:41:08.452Z,65.67
2018-11-20T17:43:58.193Z,64.20
2018-11-20T17:46:48.030Z,67.40
2018-11-20T17:49:37.867Z,68.60
2018-11-20T17:52:47.138Z,75.17
2018-11-20T17:55:36.933Z,72.87
2018-11-20T17:58:26.732Z,70.00
2018-11-20T18:01:16.539Z,76.53
2018-11-20T18:04:06.350Z,77.93
2018-11-20T18:06:56.238Z,84.13
2018-11-20T18:09:46.047Z,82.17
2018-11-20T18:12:29.324Z,79.60
2018-11-20T18:15:19.151Z,72.93
2018-11-20T18:18:08.858Z,73.13
2018-11-20T18:20:58.739Z,71.50
2018-11-20T18:23:48.585Z,65.90
2018-11-20T18:26:38.450Z,69.57
2018-11-20T18:29:28.239Z,73.30
2018-11-20T18:32:18.052Z,74.20
2018-11-20T18:35:07.890Z,82.37
2018-11-20T18:37:57.660Z,89.90
2018-11-20T18:40:47.434Z,82.87
2018-11-20T18:43:37.254Z,89.80
2018-11-20T18:46:27.092Z,93.60
2018-11-20T18:49:16.947Z,97.27
2018-11-20T18:52:07.055Z,106.63
2018-11-20T18:54:48.353Z,107.13
2018-11-20T18:57:37.995Z,93.43
2018-11-20T19:00:22.449Z,92.43
2018-11-20T19:03:12.150Z,98.13
2018-11-20T19:06:01.839Z,101.13
2018-11-20T19:08:51.664Z,94.13
2018-11-20T19:11:41.513Z,115.73
2018-11-20T19:14:31.323Z,110.17
2018-11-20T19:17:21.126Z,119.83
2018-11-20T19:20:10.928Z,129.70
2018-11-20T19:23:00.697Z,127.60
2018-11-20T19:25:50.537Z,121.53
2018-11-20T19:28:40.335Z,139.23
2018-11-20T19:31:30.183Z,129.70
2018-11-20T19:34:19.968Z,130.90
2018-11-20T19:37:09.907Z,129.53
2018-11-20T19:39:59.792Z,189.83
2018-11-20T19:42:49.691Z,158.43
2018-11-20T19:45:39.492Z,208.47
2018-11-20T19:48:29.314Z,477.83
2018-11-20T19:51:19.122Z,457.83
2018-11-20T19:54:08.941Z,381.63
2018-11-20T19:56:58.756Z,242.80
2018-11-20T19:59:48.532Z,357.70
2018-11-20T20:02:38.341Z,454.37
2018-11-20T20:05:28.310Z,414.63
2018-11-20T20:08:18.151Z,383.50
2018-11-20T20:11:07.949Z,544.47
2018-11-20T20:13:57.778Z,525.10
2018-11-20T20:16:47.523Z,706.20
2018-11-20T20:19:37.318Z,649.40
2018-11-20T20:22:27.179Z,530.17
2018-11-20T20:25:09.685Z,319.20
2018-11-20T20:27:59.466Z,625.17
2018-11-20T20:30:49.314Z,241.70
2018-11-20T20:33:39.051Z,724.87
2018-11-20T20:36:29.450Z,569.80
2018-11-20T20:39:19.153Z,700.93
2018-11-20T20:42:08.962Z,750.77
2018-11-20T20:44:58.735Z,650.03
2018-11-20T20:47:48.571Z,824.13
2018-11-20T20:50:38.372Z,592.27
2018-11-20T20:53:28.191Z,379.93
2018-11-20T20:56:17.959Z,949.83
2018-11-20T20:59:26.528Z,450.50
2018-11-20T21:02:16.298Z,991.00
2018-11-20T21:05:06.210Z,1074.93
2018-11-20T21:07:56.216Z,629.00
2018-11-20T21:10:46.052Z,1208.30
2018-11-20T21:13:35.803Z,910.87
2018-11-20T21:16:45.436Z,1020.97
2018-11-20T21:19:35.204Z,984.57
2018-11-20T21:22:25.055Z,103.30
2018-11-20T21:25:14.973Z,1123.47
2018-11-20T21:28:04.737Z,351.63
2018-11-20T21:30:54.979Z,560.93
2018-11-20T21:33:32.954Z,141.67
2018-11-20T21:36:11.135Z,373.10
2018-11-20T21:39:00.864Z,450.87
2018-11-20T21:41:50.656Z,871.73
2018-11-20T21:44:40.515Z,1014.70
2018-11-20T21:47:30.281Z,1120.20
2018-11-20T21:50:20.133Z,1120.13
2018-11-20T21:53:09.910Z,1185.57
2018-11-20T21:55:59.817Z,977.43
2018-11-20T21:58:49.709Z,1045.70
2018-11-20T22:01:39.587Z,853.00
2018-11-20T22:04:29.397Z,710.73
2018-11-20T22:07:19.203Z,1136.30
2018-11-20T22:10:08.960Z,743.00
2018-11-20T22:12:58.818Z,754.33
2018-11-20T22:15:48.619Z,801.90
2018-11-20T22:18:38.351Z,775.47
2018-11-20T22:21:28.226Z,730.73
2018-11-20T22:24:18.059Z,939.80
2018-11-20T22:27:07.852Z,1250.07
2018-11-20T22:29:57.682Z,1076.10
2018-11-20T22:32:47.490Z,839.70
2018-11-20T22:35:37.460Z,937.00
2018-11-20T22:38:27.192Z,1158.27
2018-11-20T22:41:17.050Z,715.37
2018-11-20T22:44:06.803Z,885.27
2018-11-20T22:46:56.593Z,1168.10
2018-11-20T22:49:46.383Z,861.17
2018-11-20T22:52:36.157Z,940.67
2018-11-20T22:55:26.539Z,784.47
2018-11-20T22:58:16.383Z,875.50
2018-11-20T23:01:06.180Z,600.53
2018-11-20T23:03:55.983Z,772.17
2018-11-20T23:06:43.459Z,782.40
2018-11-20T23:09:14.713Z,921.67
2018-11-20T23:11:46.048Z,1053.30
2018-11-20T23:14:19.163Z,1064.57
2018-11-20T23:16:50.448Z,924.37
2018-11-20T23:19:21.682Z,1147.13
2018-11-20T23:21:52.973Z,753.27
2018-11-20T23:24:24.213Z,663.37
2018-11-20T23:26:55.448Z,941.97
2018-11-20T23:29:26.752Z,737.67
2018-11-20T23:31:57.973Z,779.37
2018-11-20T23:34:29.269Z,806.20
2018-11-20T23:37:00.500Z,1004.40
2018-11-20T23:39:31.792Z,645.47
2018-11-20T23:42:03.034Z,758.70
2018-11-20T23:44:34.272Z,664.70
2018-11-20T23:47:05.574Z,827.90
2018-11-20T23:49:36.943Z,818.03
2018-11-20T23:52:08.161Z,672.93
2018-11-20T23:54:39.421Z,518.90
2018-11-20T23:57:10.670Z,1045.20
2018-11-20T23:59:41.931Z,932.17
